sensor_id;sensor_type;location;lat;lon;timestamp;P1;durP1;ratioP1;P2;durP2;ratioP2
1164;SDS011;571;50.930;6.926;2023-04-03T02:46:11;6.13;;;5.53;;
1164;SDS011;571;50.930;6.926;2023-04-03T02:48:40;6.23;;;4.40;;
1164;SDS011;571;50.930;6.926;2023-04-03T02:51:06;8.00;;;4.20;;
1164;SDS011;571;50.930;6.926;2023-04-03T02:53:33;6.80;;;4.90;;
1164;SDS011;571;50.930;6.926;2023-04-03T02:56:00;4.73;;;4.03;;
1164;SDS011;571;50.930;6.926;2023-04-03T02:58:27;4.40;;;4.10;;
1164;SDS011;571;50.930;6.926;2023-04-03T03:00:53;5.70;;;5.20;;
1164;SDS011;571;50.930;6.926;2023-04-03T03:03:21;4.43;;;4.13;;
1164;SDS011;571;50.930;6.926;2023-04-03T03:05:48;6.20;;;4.60;;
1164;SDS011;571;50.930;6.926;2023-04-03T03:08:17;5.10;;;4.70;;
1164;SDS011;571;50.930;6.926;2023-04-03T03:10:45;5.20;;;4.70;;
1164;SDS011;571;50.930;6.926;2023-04-03T03:13:21;4.60;;;4.30;;
1164;SDS011;571;50.930;6.926;2023-04-03T03:16:01;4.37;;;3.97;;
1164;SDS011;571;50.930;6.926;2023-04-03T03:19:16;4.10;;;3.73;;
1164;SDS011;571;50.930;6.926;2023-04-03T03:21:59;4.77;;;4.37;;
1164;SDS011;571;50.930;6.926;2023-04-03T03:24:30;5.83;;;4.50;;
1164;SDS011;571;50.930;6.926;2023-04-03T03:27:27;4.70;;;4.30;;
1164;SDS011;571;50.930;6.926;2023-04-03T03:30:11;4.43;;;4.00;;
1164;SDS011;571;50.930;6.926;2023-04-03T03:33:06;5.57;;;3.80;;
1164;SDS011;571;50.930;6.926;2023-04-03T03:35:49;4.13;;;3.77;;
1164;SDS011;571;50.930;6.926;2023-04-03T03:38:26;4.37;;;3.70;;
1164;SDS011;571;50.930;6.926;2023-04-03T03:41:10;3.77;;;3.43;;
1164;SDS011;571;50.930;6.926;2023-04-03T03:43:40;4.70;;;3.90;;
1164;SDS011;571;50.930;6.926;2023-04-03T03:46:40;8.00;;;4.47;;
1164;SDS011;571;50.930;6.926;2023-04-03T03:49:15;5.60;;;3.97;;
1164;SDS011;571;50.930;6.926;2023-04-03T03:51:50;4.97;;;3.80;;
1164;SDS011;571;50.930;6.926;2023-04-03T03:54:36;4.30;;;3.53;;
1164;SDS011;571;50.930;6.926;2023-04-03T03:57:10;4.57;;;3.20;;
1164;SDS011;571;50.930;6.926;2023-04-03T03:59:53;6.63;;;3.30;;
1164;SDS011;571;50.930;6.926;2023-04-03T04:02:31;3.07;;;2.87;;
1164;SDS011;571;50.930;6.926;2023-04-03T04:05:24;3.40;;;3.10;;
1164;SDS011;571;50.930;6.926;2023-04-03T04:08:20;6.00;;;3.73;;
1164;SDS011;571;50.930;6.926;2023-04-03T04:11:15;3.33;;;2.80;;
1164;SDS011;571;50.930;6.926;2023-04-03T04:14:08;3.30;;;3.00;;
1164;SDS011;571;50.930;6.926;2023-04-03T04:16:47;3.43;;;2.90;;
1164;SDS011;571;50.930;6.926;2023-04-03T04:19:16;3.40;;;3.10;;
1164;SDS011;571;50.930;6.926;2023-04-03T04:21:57;4.87;;;3.80;;
1164;SDS011;571;50.930;6.926;2023-04-03T04:27:35;3.30;;;3.10;;
1164;SDS011;571;50.930;6.926;2023-04-03T04:30:32;3.97;;;3.03;;
1164;SDS011;571;50.930;6.926;2023-04-03T04:33:08;3.23;;;2.80;;
1164;SDS011;571;50.930;6.926;2023-04-03T04:35:57;5.83;;;2.97;;
1164;SDS011;571;50.930;6.926;2023-04-03T04:38:35;6.20;;;3.97;;
1164;SDS011;571;50.930;6.926;2023-04-03T04:41:07;3.43;;;3.10;;
1164;SDS011;571;50.930;6.926;2023-04-03T04:46:38;4.07;;;2.80;;
1164;SDS011;571;50.930;6.926;2023-04-03T04:49:14;3.73;;;3.17;;
1164;SDS011;571;50.930;6.926;2023-04-03T04:51:52;7.37;;;4.40;;
1164;SDS011;571;50.930;6.926;2023-04-03T04:54:23;4.17;;;2.13;;
1164;SDS011;571;50.930;6.926;2023-04-03T04:57:19;5.97;;;3.10;;
1164;SDS011;571;50.930;6.926;2023-04-03T05:03:05;4.90;;;3.27;;
1164;SDS011;571;50.930;6.926;2023-04-03T05:09:15;3.13;;;2.60;;
1164;SDS011;571;50.930;6.926;2023-04-03T05:12:19;2.80;;;2.60;;
1164;SDS011;571;50.930;6.926;2023-04-03T05:15:06;6.70;;;2.70;;
1164;SDS011;571;50.930;6.926;2023-04-03T05:17:42;3.47;;;2.13;;
1164;SDS011;571;50.930;6.926;2023-04-03T05:20:33;3.00;;;2.80;;
1164;SDS011;571;50.930;6.926;2023-04-03T05:23:34;3.80;;;2.60;;
1164;SDS011;571;50.930;6.926;2023-04-03T05:26:06;2.60;;;2.40;;
1164;SDS011;571;50.930;6.926;2023-04-03T05:28:46;2.77;;;2.57;;
1164;SDS011;571;50.930;6.926;2023-04-03T05:31:21;5.60;;;3.10;;
1164;SDS011;571;50.930;6.926;2023-04-03T05:33:58;5.63;;;2.50;;
1164;SDS011;571;50.930;6.926;2023-04-03T05:36:39;4.67;;;2.80;;
1164;SDS011;571;50.930;6.926;2023-04-03T05:39:09;5.83;;;2.70;;
1164;SDS011;571;50.930;6.926;2023-04-03T05:41:38;4.27;;;2.90;;
1164;SDS011;571;50.930;6.926;2023-04-03T05:44:11;4.10;;;2.40;;
1164;SDS011;571;50.930;6.926;2023-04-03T05:46:58;8.53;;;2.50;;
1164;SDS011;571;50.930;6.926;2023-04-03T05:49:32;3.23;;;2.90;;
1164;SDS011;571;50.930;6.926;2023-04-03T05:52:10;3.50;;;2.53;;
1164;SDS011;571;50.930;6.926;2023-04-03T05:54:48;3.40;;;2.37;;
1164;SDS011;571;50.930;6.926;2023-04-03T06:00:06;2.90;;;2.50;;
1164;SDS011;571;50.930;6.926;2023-04-03T06:02:44;2.80;;;2.17;;
1164;SDS011;571;50.930;6.926;2023-04-03T06:05:33;2.80;;;2.60;;
1164;SDS011;571;50.930;6.926;2023-04-03T06:08:21;3.40;;;2.67;;
1164;SDS011;571;50.930;6.926;2023-04-03T06:10:53;2.10;;;2.00;;
1164;SDS011;571;50.930;6.926;2023-04-03T06:13:21;3.97;;;2.07;;
1164;SDS011;571;50.930;6.926;2023-04-03T06:15:54;2.57;;;2.33;;
1164;SDS011;571;50.930;6.926;2023-04-03T06:18:25;6.27;;;2.80;;
1164;SDS011;571;50.930;6.926;2023-04-03T06:21:13;3.67;;;2.27;;
1164;SDS011;571;50.930;6.926;2023-04-03T06:23:48;2.20;;;2.00;;
1164;SDS011;571;50.930;6.926;2023-04-03T06:26:19;1.97;;;1.80;;
1164;SDS011;571;50.930;6.926;2023-04-03T06:29:00;3.87;;;2.00;;
1164;SDS011;571;50.930;6.926;2023-04-03T06:32:02;4.03;;;3.63;;
1164;SDS011;571;50.930;6.926;2023-04-03T06:34:31;5.10;;;1.93;;
1164;SDS011;571;50.930;6.926;2023-04-03T06:37:01;1.90;;;1.73;;
1164;SDS011;571;50.930;6.926;2023-04-03T06:39:28;4.43;;;2.50;;
1164;SDS011;571;50.930;6.926;2023-04-03T06:41:58;4.30;;;2.70;;
1164;SDS011;571;50.930;6.926;2023-04-03T06:44:31;1.90;;;1.80;;
1164;SDS011;571;50.930;6.926;2023-04-03T06:47:01;5.70;;;2.50;;
1164;SDS011;571;50.930;6.926;2023-04-03T06:49:31;2.30;;;2.07;;
1164;SDS011;571;50.930;6.926;2023-04-03T06:54:51;2.27;;;2.07;;
1164;SDS011;571;50.930;6.926;2023-04-03T06:57:25;2.23;;;1.80;;
1164;SDS011;571;50.930;6.926;2023-04-03T06:59:51;3.50;;;1.93;;
1164;SDS011;571;50.930;6.926;2023-04-03T07:02:19;2.00;;;1.83;;
1164;SDS011;571;50.930;6.926;2023-04-03T07:04:46;2.90;;;2.23;;
1164;SDS011;571;50.930;6.926;2023-04-03T07:07:13;4.13;;;2.97;;
1164;SDS011;571;50.930;6.926;2023-04-03T07:09:45;3.40;;;2.70;;
1164;SDS011;571;50.930;6.926;2023-04-03T07:12:13;3.97;;;3.07;;
1164;SDS011;571;50.930;6.926;2023-04-03T07:14:46;3.97;;;2.30;;
1164;SDS011;571;50.930;6.926;2023-04-03T07:17:13;3.00;;;1.87;;
1164;SDS011;571;50.930;6.926;2023-04-03T07:19:41;4.50;;;2.40;;
1164;SDS011;571;50.930;6.926;2023-04-03T07:22:11;9.73;;;2.30;;
1164;SDS011;571;50.930;6.926;2023-04-03T07:24:40;5.10;;;2.00;;
1164;SDS011;571;50.930;6.926;2023-04-03T07:27:08;3.83;;;2.07;;
1164;SDS011;571;50.930;6.926;2023-04-03T07:29:37;8.00;;;2.57;;
1164;SDS011;571;50.930;6.926;2023-04-03T07:32:04;6.10;;;2.20;;
1164;SDS011;571;50.930;6.926;2023-04-03T07:34:32;4.67;;;1.67;;
1164;SDS011;571;50.930;6.926;2023-04-03T07:36:59;4.70;;;2.33;;
1164;SDS011;571;50.930;6.926;2023-04-03T07:39:26;7.20;;;2.23;;
1164;SDS011;571;50.930;6.926;2023-04-03T07:41:53;2.97;;;1.87;;
1164;SDS011;571;50.930;6.926;2023-04-03T07:44:22;5.33;;;2.00;;
1164;SDS011;571;50.930;6.926;2023-04-03T07:46:49;2.10;;;1.90;;
1164;SDS011;571;50.930;6.926;2023-04-03T07:49:16;1.53;;;1.33;;
1164;SDS011;571;50.930;6.926;2023-04-03T07:51:44;2.40;;;1.73;;
1164;SDS011;571;50.930;6.926;2023-04-03T07:54:11;3.73;;;2.00;;
1164;SDS011;571;50.930;6.926;2023-04-03T07:56:38;3.70;;;1.93;;
1164;SDS011;571;50.930;6.926;2023-04-03T07:59:07;1.80;;;1.40;;
1164;SDS011;571;50.930;6.926;2023-04-03T08:01:48;4.20;;;2.13;;
1164;SDS011;571;50.930;6.926;2023-04-03T08:04:39;5.17;;;2.50;;
1164;SDS011;571;50.930;6.926;2023-04-03T08:10:39;2.30;;;1.50;;
1164;SDS011;571;50.930;6.926;2023-04-03T08:13:34;3.67;;;2.00;;
1164;SDS011;571;50.930;6.926;2023-04-03T08:16:09;2.27;;;1.80;;
1164;SDS011;571;50.930;6.926;2023-04-03T08:18:59;4.27;;;1.77;;
1164;SDS011;571;50.930;6.926;2023-04-03T08:25:10;3.43;;;1.70;;
1164;SDS011;571;50.930;6.926;2023-04-03T08:27:55;5.13;;;1.70;;
1164;SDS011;571;50.930;6.926;2023-04-03T08:33:39;3.27;;;1.50;;
1164;SDS011;571;50.930;6.926;2023-04-03T08:36:15;3.33;;;1.70;;
1164;SDS011;571;50.930;6.926;2023-04-03T08:38:44;3.43;;;1.80;;
1164;SDS011;571;50.930;6.926;2023-04-03T08:41:15;5.43;;;1.40;;
1164;SDS011;571;50.930;6.926;2023-04-03T08:43:53;1.77;;;1.33;;
1164;SDS011;571;50.930;6.926;2023-04-03T08:46:42;4.10;;;1.57;;
1164;SDS011;571;50.930;6.926;2023-04-03T08:49:22;5.60;;;1.53;;
1164;SDS011;571;50.930;6.926;2023-04-03T08:51:55;5.27;;;1.70;;
1164;SDS011;571;50.930;6.926;2023-04-03T08:54:27;8.10;;;1.53;;
1164;SDS011;571;50.930;6.926;2023-04-03T08:56:56;5.20;;;1.50;;
1164;SDS011;571;50.930;6.926;2023-04-03T08:59:26;4.80;;;1.80;;
1164;SDS011;571;50.930;6.926;2023-04-03T09:01:56;2.63;;;1.50;;
1164;SDS011;571;50.930;6.926;2023-04-03T09:04:25;3.40;;;1.73;;
1164;SDS011;571;50.930;6.926;2023-04-03T09:06:54;11.27;;;2.67;;
1164;SDS011;571;50.930;6.926;2023-04-03T09:09:30;3.00;;;1.33;;
1164;SDS011;571;50.930;6.926;2023-04-03T09:12:11;1.27;;;1.10;;
1164;SDS011;571;50.930;6.926;2023-04-03T09:14:46;2.23;;;1.53;;
1164;SDS011;571;50.930;6.926;2023-04-03T09:17:24;2.00;;;1.33;;
1164;SDS011;571;50.930;6.926;2023-04-03T09:20:11;2.50;;;1.30;;
1164;SDS011;571;50.930;6.926;2023-04-03T09:23:18;3.33;;;1.43;;
1164;SDS011;571;50.930;6.926;2023-04-03T09:25:53;2.70;;;1.57;;
1164;SDS011;571;50.930;6.926;2023-04-03T09:28:30;3.03;;;1.33;;
1164;SDS011;571;50.930;6.926;2023-04-03T09:31:00;2.70;;;1.27;;
1164;SDS011;571;50.930;6.926;2023-04-03T09:33:46;4.67;;;1.20;;
1164;SDS011;571;50.930;6.926;2023-04-03T09:36:39;2.03;;;1.13;;
1164;SDS011;571;50.930;6.926;2023-04-03T09:39:48;3.33;;;1.80;;
1164;SDS011;571;50.930;6.926;2023-04-03T09:42:28;3.90;;;1.10;;
1164;SDS011;571;50.930;6.926;2023-04-03T09:45:56;1.90;;;1.13;;
1164;SDS011;571;50.930;6.926;2023-04-03T09:52:19;1.93;;;1.30;;
1164;SDS011;571;50.930;6.926;2023-04-03T09:55:13;2.00;;;1.60;;
1164;SDS011;571;50.930;6.926;2023-04-03T10:01:56;1.93;;;1.10;;
1164;SDS011;571;50.930;6.926;2023-04-03T10:08:33;4.87;;;1.20;;
1164;SDS011;571;50.930;6.926;2023-04-03T10:12:05;3.13;;;1.13;;
1164;SDS011;571;50.930;6.926;2023-04-03T10:15:12;3.53;;;1.00;;
1164;SDS011;571;50.930;6.926;2023-04-03T10:18:27;2.40;;;1.17;;
1164;SDS011;571;50.930;6.926;2023-04-03T10:21:13;0.80;;;0.77;;
1164;SDS011;571;50.930;6.926;2023-04-03T10:30:19;2.20;;;1.00;;
1164;SDS011;571;50.930;6.926;2023-04-03T10:36:56;2.00;;;1.00;;
1164;SDS011;571;50.930;6.926;2023-04-03T10:39:35;2.37;;;1.20;;
1164;SDS011;571;50.930;6.926;2023-04-03T10:42:11;1.43;;;0.90;;
1164;SDS011;571;50.930;6.926;2023-04-03T10:44:49;1.63;;;1.00;;
1164;SDS011;571;50.930;6.926;2023-04-03T10:47:29;4.17;;;1.30;;
1164;SDS011;571;50.930;6.926;2023-04-03T10:50:04;2.40;;;1.30;;
1164;SDS011;571;50.930;6.926;2023-04-03T10:52:50;1.53;;;1.13;;
1164;SDS011;571;50.930;6.926;2023-04-03T10:55:24;1.97;;;0.90;;
1164;SDS011;571;50.930;6.926;2023-04-03T10:58:04;1.10;;;0.80;;
1164;SDS011;571;50.930;6.926;2023-04-03T11:00:38;0.90;;;0.80;;
1164;SDS011;571;50.930;6.926;2023-04-03T11:03:13;1.30;;;0.97;;
1164;SDS011;571;50.930;6.926;2023-04-03T11:05:52;1.50;;;1.20;;
1164;SDS011;571;50.930;6.926;2023-04-03T11:08:25;2.63;;;0.90;;
1164;SDS011;571;50.930;6.926;2023-04-03T11:11:06;1.90;;;1.13;;
1164;SDS011;571;50.930;6.926;2023-04-03T11:13:40;2.30;;;1.10;;
1164;SDS011;571;50.930;6.926;2023-04-03T11:16:14;1.47;;;0.70;;
1164;SDS011;571;50.930;6.926;2023-04-03T11:18:56;1.97;;;1.10;;
1164;SDS011;571;50.930;6.926;2023-04-03T11:21:35;2.47;;;0.87;;
1164;SDS011;571;50.930;6.926;2023-04-03T11:24:09;1.03;;;0.80;;
1164;SDS011;571;50.930;6.926;2023-04-03T11:26:42;2.20;;;0.90;;
1164;SDS011;571;50.930;6.926;2023-04-03T11:29:13;4.40;;;0.77;;
1164;SDS011;571;50.930;6.926;2023-04-03T11:31:51;1.07;;;0.80;;
1164;SDS011;571;50.930;6.926;2023-04-03T11:34:33;1.53;;;1.10;;
1164;SDS011;571;50.930;6.926;2023-04-03T11:37:13;2.17;;;1.20;;
1164;SDS011;571;50.930;6.926;2023-04-03T11:39:52;2.40;;;0.93;;
1164;SDS011;571;50.930;6.926;2023-04-03T11:42:24;1.07;;;0.80;;
1164;SDS011;571;50.930;6.926;2023-04-03T11:45:22;1.87;;;0.70;;
1164;SDS011;571;50.930;6.926;2023-04-03T11:47:54;2.63;;;0.83;;
1164;SDS011;571;50.930;6.926;2023-04-03T11:54:09;2.60;;;1.10;;
1164;SDS011;571;50.930;6.926;2023-04-03T12:03:34;1.70;;;1.03;;
1164;SDS011;571;50.930;6.926;2023-04-03T12:09:33;3.13;;;1.30;;
1164;SDS011;571;50.930;6.926;2023-04-03T12:12:24;2.73;;;1.00;;
1164;SDS011;571;50.930;6.926;2023-04-03T12:21:17;1.00;;;0.80;;
1164;SDS011;571;50.930;6.926;2023-04-03T12:23:59;1.87;;;0.70;;
1164;SDS011;571;50.930;6.926;2023-04-03T12:26:38;1.07;;;0.70;;
1164;SDS011;571;50.930;6.926;2023-04-03T12:29:12;1.23;;;0.90;;
1164;SDS011;571;50.930;6.926;2023-04-03T12:31:48;1.00;;;0.73;;
1164;SDS011;571;50.930;6.926;2023-04-03T12:34:34;1.23;;;1.00;;
1164;SDS011;571;50.930;6.926;2023-04-03T12:37:19;0.90;;;0.67;;
1164;SDS011;571;50.930;6.926;2023-04-03T12:40:04;2.37;;;1.20;;
1164;SDS011;571;50.930;6.926;2023-04-03T12:42:52;2.17;;;0.97;;
1164;SDS011;571;50.930;6.926;2023-04-03T12:45:40;2.20;;;1.07;;
1164;SDS011;571;50.930;6.926;2023-04-03T12:48:14;2.33;;;1.10;;
1164;SDS011;571;50.930;6.926;2023-04-03T12:50:43;2.10;;;0.80;;
1164;SDS011;571;50.930;6.926;2023-04-03T12:53:13;1.80;;;0.80;;
1164;SDS011;571;50.930;6.926;2023-04-03T12:55:50;1.50;;;0.90;;
1164;SDS011;571;50.930;6.926;2023-04-03T12:58:22;1.83;;;1.20;;
1164;SDS011;571;50.930;6.926;2023-04-03T13:01:00;3.13;;;0.90;;
1164;SDS011;571;50.930;6.926;2023-04-03T13:03:29;2.70;;;1.10;;
1164;SDS011;571;50.930;6.926;2023-04-03T13:05:59;1.20;;;0.90;;
1164;SDS011;571;50.930;6.926;2023-04-03T13:08:28;1.90;;;0.77;;
1164;SDS011;571;50.930;6.926;2023-04-03T13:10:58;3.60;;;1.43;;
1164;SDS011;571;50.930;6.926;2023-04-03T13:13:30;2.60;;;1.27;;
1164;SDS011;571;50.930;6.926;2023-04-03T13:15:57;2.07;;;0.93;;
1164;SDS011;571;50.930;6.926;2023-04-03T13:18:29;1.70;;;0.90;;
1164;SDS011;571;50.930;6.926;2023-04-03T13:20:58;2.00;;;1.07;;
1164;SDS011;571;50.930;6.926;2023-04-03T13:23:28;1.63;;;0.70;;
1164;SDS011;571;50.930;6.926;2023-04-03T13:25:56;1.00;;;0.60;;
1164;SDS011;571;50.930;6.926;2023-04-03T13:28:27;2.47;;;0.77;;
1164;SDS011;571;50.930;6.926;2023-04-03T13:30:59;2.07;;;1.10;;
1164;SDS011;571;50.930;6.926;2023-04-03T13:33:33;3.80;;;1.57;;
1164;SDS011;571;50.930;6.926;2023-04-03T13:36:04;1.20;;;0.90;;
1164;SDS011;571;50.930;6.926;2023-04-03T13:38:33;1.60;;;0.80;;
1164;SDS011;571;50.930;6.926;2023-04-03T13:41:02;1.90;;;1.20;;
1164;SDS011;571;50.930;6.926;2023-04-03T13:43:33;2.20;;;1.13;;
1164;SDS011;571;50.930;6.926;2023-04-03T13:46:03;1.57;;;1.00;;
1164;SDS011;571;50.930;6.926;2023-04-03T13:48:48;1.37;;;1.00;;
1164;SDS011;571;50.930;6.926;2023-04-03T13:51:18;4.20;;;1.10;;
1164;SDS011;571;50.930;6.926;2023-04-03T13:53:48;3.20;;;1.30;;
1164;SDS011;571;50.930;6.926;2023-04-03T13:56:19;1.57;;;1.17;;
1164;SDS011;571;50.930;6.926;2023-04-03T13:58:56;4.00;;;1.00;;
1164;SDS011;571;50.930;6.926;2023-04-03T14:01:38;2.87;;;1.40;;
1164;SDS011;571;50.930;6.926;2023-04-03T14:04:12;3.37;;;1.30;;
1164;SDS011;571;50.930;6.926;2023-04-03T14:06:45;2.30;;;1.00;;
1164;SDS011;571;50.930;6.926;2023-04-03T14:09:15;2.77;;;1.40;;
1164;SDS011;571;50.930;6.926;2023-04-03T14:11:44;3.17;;;0.97;;
1164;SDS011;571;50.930;6.926;2023-04-03T14:14:15;1.77;;;1.13;;
1164;SDS011;571;50.930;6.926;2023-04-03T14:16:45;1.70;;;1.27;;
1164;SDS011;571;50.930;6.926;2023-04-03T14:19:16;3.00;;;1.50;;
1164;SDS011;571;50.930;6.926;2023-04-03T14:21:45;1.30;;;1.00;;
1164;SDS011;571;50.930;6.926;2023-04-03T14:24:12;2.60;;;1.47;;
1164;SDS011;571;50.930;6.926;2023-04-03T14:26:39;2.00;;;1.60;;
1164;SDS011;571;50.930;6.926;2023-04-03T14:29:09;2.47;;;1.57;;
1164;SDS011;571;50.930;6.926;2023-04-03T14:31:38;0.90;;;0.73;;
1164;SDS011;571;50.930;6.926;2023-04-03T14:34:05;2.30;;;1.10;;
1164;SDS011;571;50.930;6.926;2023-04-03T14:36:32;3.53;;;1.10;;
1164;SDS011;571;50.930;6.926;2023-04-03T14:39:03;2.30;;;1.20;;
1164;SDS011;571;50.930;6.926;2023-04-03T14:41:39;4.40;;;0.90;;
1164;SDS011;571;50.930;6.926;2023-04-03T14:44:05;5.20;;;1.60;;
1164;SDS011;571;50.930;6.926;2023-04-03T14:46:33;1.80;;;1.20;;
1164;SDS011;571;50.930;6.926;2023-04-03T14:49:03;2.67;;;1.50;;
1164;SDS011;571;50.930;6.926;2023-04-03T14:51:38;1.80;;;1.00;;
1164;SDS011;571;50.930;6.926;2023-04-03T14:54:05;1.60;;;1.43;;
1164;SDS011;571;50.930;6.926;2023-04-03T14:56:36;3.23;;;1.67;;
1164;SDS011;571;50.930;6.926;2023-04-03T14:59:04;3.50;;;1.47;;
1164;SDS011;571;50.930;6.926;2023-04-03T15:01:35;2.33;;;1.20;;
1164;SDS011;571;50.930;6.926;2023-04-03T15:04:08;1.40;;;1.27;;
1164;SDS011;571;50.930;6.926;2023-04-03T15:06:37;2.77;;;1.27;;
1164;SDS011;571;50.930;6.926;2023-04-03T15:09:07;3.03;;;1.50;;
1164;SDS011;571;50.930;6.926;2023-04-03T15:11:41;2.70;;;1.13;;
1164;SDS011;571;50.930;6.926;2023-04-03T15:17:15;1.60;;;1.13;;
1164;SDS011;571;50.930;6.926;2023-04-03T15:19:48;2.00;;;1.80;;
1164;SDS011;571;50.930;6.926;2023-04-03T15:22:16;2.23;;;0.97;;
1164;SDS011;571;50.930;6.926;2023-04-03T15:24:45;3.47;;;2.00;;
1164;SDS011;571;50.930;6.926;2023-04-03T15:27:12;1.40;;;1.20;;
1164;SDS011;571;50.930;6.926;2023-04-03T15:29:40;2.20;;;1.00;;
1164;SDS011;571;50.930;6.926;2023-04-03T15:32:08;2.00;;;1.50;;
1164;SDS011;571;50.930;6.926;2023-04-03T15:34:36;2.50;;;1.07;;
1164;SDS011;571;50.930;6.926;2023-04-03T15:37:05;2.40;;;1.10;;
1164;SDS011;571;50.930;6.926;2023-04-03T15:39:32;2.73;;;1.30;;
1164;SDS011;571;50.930;6.926;2023-04-03T15:41:59;2.10;;;1.33;;
1164;SDS011;571;50.930;6.926;2023-04-03T15:44:30;1.63;;;1.30;;
1164;SDS011;571;50.930;6.926;2023-04-03T15:46:58;2.10;;;1.47;;
1164;SDS011;571;50.930;6.926;2023-04-03T15:49:26;4.70;;;1.33;;
1164;SDS011;571;50.930;6.926;2023-04-03T15:51:52;1.90;;;1.30;;
1164;SDS011;571;50.930;6.926;2023-04-03T15:54:20;1.20;;;1.10;;
1164;SDS011;571;50.930;6.926;2023-04-03T15:56:48;2.67;;;1.23;;
1164;SDS011;571;50.930;6.926;2023-04-03T15:59:15;2.73;;;1.37;;
1164;SDS011;571;50.930;6.926;2023-04-03T16:01:42;1.50;;;0.97;;
1164;SDS011;571;50.930;6.926;2023-04-03T16:04:09;1.93;;;1.20;;
1164;SDS011;571;50.930;6.926;2023-04-03T16:06:36;2.80;;;1.33;;
1164;SDS011;571;50.930;6.926;2023-04-03T16:09:04;1.87;;;1.37;;
1164;SDS011;571;50.930;6.926;2023-04-03T16:11:33;1.83;;;1.60;;
1164;SDS011;571;50.930;6.926;2023-04-03T16:14:02;1.90;;;1.80;;
1164;SDS011;571;50.930;6.926;2023-04-03T16:16:29;2.10;;;1.43;;
1164;SDS011;571;50.930;6.926;2023-04-03T16:18:56;2.53;;;1.47;;
1164;SDS011;571;50.930;6.926;2023-04-03T16:21:22;1.40;;;1.03;;
1164;SDS011;571;50.930;6.926;2023-04-03T16:23:49;1.47;;;1.10;;
1164;SDS011;571;50.930;6.926;2023-04-03T16:26:16;1.43;;;1.33;;
1164;SDS011;571;50.930;6.926;2023-04-03T16:28:44;2.40;;;1.13;;
1164;SDS011;571;50.930;6.926;2023-04-03T16:31:11;6.80;;;2.73;;
1164;SDS011;571;50.930;6.926;2023-04-03T16:33:38;3.23;;;1.50;;
1164;SDS011;571;50.930;6.926;2023-04-03T16:36:05;2.50;;;1.47;;
1164;SDS011;571;50.930;6.926;2023-04-03T16:38:32;2.53;;;1.53;;
1164;SDS011;571;50.930;6.926;2023-04-03T16:40:59;2.63;;;1.50;;
1164;SDS011;571;50.930;6.926;2023-04-03T16:43:29;4.07;;;1.40;;
1164;SDS011;571;50.930;6.926;2023-04-03T16:45:57;2.90;;;1.37;;
1164;SDS011;571;50.930;6.926;2023-04-03T16:48:27;2.20;;;1.37;;
1164;SDS011;571;50.930;6.926;2023-04-03T16:50:54;3.33;;;1.30;;
1164;SDS011;571;50.930;6.926;2023-04-03T16:53:20;2.70;;;1.60;;
1164;SDS011;571;50.930;6.926;2023-04-03T16:55:48;1.93;;;1.40;;
1164;SDS011;571;50.930;6.926;2023-04-03T16:58:15;2.60;;;1.80;;
1164;SDS011;571;50.930;6.926;2023-04-03T17:00:41;3.60;;;1.90;;
1164;SDS011;571;50.930;6.926;2023-04-03T17:03:10;3.93;;;2.17;;
1164;SDS011;571;50.930;6.926;2023-04-03T17:05:37;1.30;;;1.20;;
1164;SDS011;571;50.930;6.926;2023-04-03T17:08:04;2.33;;;1.33;;
1164;SDS011;571;50.930;6.926;2023-04-03T17:10:31;3.50;;;1.43;;
1164;SDS011;571;50.930;6.926;2023-04-03T17:12:59;2.67;;;1.73;;
1164;SDS011;571;50.930;6.926;2023-04-03T17:15:26;1.80;;;1.20;;
1164;SDS011;571;50.930;6.926;2023-04-03T17:17:53;1.80;;;1.40;;
1164;SDS011;571;50.930;6.926;2023-04-03T17:20:21;4.83;;;2.90;;
1164;SDS011;571;50.930;6.926;2023-04-03T17:22:48;3.87;;;1.53;;
1164;SDS011;571;50.930;6.926;2023-04-03T17:25:15;3.57;;;1.67;;
1164;SDS011;571;50.930;6.926;2023-04-03T17:27:44;1.80;;;1.40;;
1164;SDS011;571;50.930;6.926;2023-04-03T17:30:13;6.70;;;2.83;;
1164;SDS011;571;50.930;6.926;2023-04-03T17:32:44;1.30;;;1.10;;
1164;SDS011;571;50.930;6.926;2023-04-03T17:35:11;2.10;;;1.50;;
1164;SDS011;571;50.930;6.926;2023-04-03T17:37:39;4.10;;;1.70;;
1164;SDS011;571;50.930;6.926;2023-04-03T17:40:07;3.57;;;1.80;;
1164;SDS011;571;50.930;6.926;2023-04-03T17:42:38;3.37;;;2.50;;
1164;SDS011;571;50.930;6.926;2023-04-03T17:45:05;2.30;;;1.10;;
1164;SDS011;571;50.930;6.926;2023-04-03T17:47:33;4.10;;;2.00;;
1164;SDS011;571;50.930;6.926;2023-04-03T17:49:59;2.83;;;2.43;;
1164;SDS011;571;50.930;6.926;2023-04-03T17:52:26;2.80;;;1.57;;
1164;SDS011;571;50.930;6.926;2023-04-03T17:54:54;3.93;;;2.30;;
1164;SDS011;571;50.930;6.926;2023-04-03T17:57:21;2.53;;;1.83;;
1164;SDS011;571;50.930;6.926;2023-04-03T17:59:48;2.23;;;2.00;;
1164;SDS011;571;50.930;6.926;2023-04-03T18:02:17;3.00;;;1.60;;
1164;SDS011;571;50.930;6.926;2023-04-03T18:04:45;3.00;;;1.93;;
1164;SDS011;571;50.930;6.926;2023-04-03T18:07:14;3.47;;;1.60;;
1164;SDS011;571;50.930;6.926;2023-04-03T18:09:41;4.17;;;2.10;;
1164;SDS011;571;50.930;6.926;2023-04-03T18:12:12;3.33;;;2.00;;
1164;SDS011;571;50.930;6.926;2023-04-03T18:14:50;2.10;;;1.90;;
1164;SDS011;571;50.930;6.926;2023-04-03T18:17:19;6.07;;;2.03;;
1164;SDS011;571;50.930;6.926;2023-04-03T18:19:46;3.77;;;2.70;;
1164;SDS011;571;50.930;6.926;2023-04-03T18:22:15;2.80;;;2.20;;
1164;SDS011;571;50.930;6.926;2023-04-03T18:24:51;4.17;;;2.50;;
1164;SDS011;571;50.930;6.926;2023-04-03T18:27:21;4.53;;;3.03;;
1164;SDS011;571;50.930;6.926;2023-04-03T18:30:00;4.77;;;2.73;;
1164;SDS011;571;50.930;6.926;2023-04-03T18:32:34;3.33;;;2.23;;
1164;SDS011;571;50.930;6.926;2023-04-03T18:35:01;6.20;;;2.93;;
1164;SDS011;571;50.930;6.926;2023-04-03T18:37:28;4.13;;;3.50;;
1164;SDS011;571;50.930;6.926;2023-04-03T18:39:56;7.37;;;2.40;;
1164;SDS011;571;50.930;6.926;2023-04-03T18:42:30;3.67;;;1.70;;
1164;SDS011;571;50.930;6.926;2023-04-03T18:44:59;4.40;;;1.70;;
1164;SDS011;571;50.930;6.926;2023-04-03T18:47:28;3.03;;;2.20;;
1164;SDS011;571;50.930;6.926;2023-04-03T18:49:55;3.40;;;2.40;;
1164;SDS011;571;50.930;6.926;2023-04-03T18:52:22;5.00;;;2.40;;
1164;SDS011;571;50.930;6.926;2023-04-03T18:54:52;3.00;;;1.90;;
1164;SDS011;571;50.930;6.926;2023-04-03T18:57:20;2.60;;;1.87;;
1164;SDS011;571;50.930;6.926;2023-04-03T18:59:49;3.00;;;1.50;;
1164;SDS011;571;50.930;6.926;2023-04-03T19:02:16;1.90;;;1.80;;
1164;SDS011;571;50.930;6.926;2023-04-03T19:04:45;3.33;;;1.97;;
1164;SDS011;571;50.930;6.926;2023-04-03T19:07:13;5.60;;;2.30;;
1164;SDS011;571;50.930;6.926;2023-04-03T19:09:40;4.60;;;1.87;;
1164;SDS011;571;50.930;6.926;2023-04-03T19:12:07;2.90;;;1.90;;
1164;SDS011;571;50.930;6.926;2023-04-03T19:14:33;2.13;;;1.83;;
1164;SDS011;571;50.930;6.926;2023-04-03T19:17:02;2.20;;;1.67;;
1164;SDS011;571;50.930;6.926;2023-04-03T19:19:31;2.37;;;2.00;;
1164;SDS011;571;50.930;6.926;2023-04-03T19:21:58;5.03;;;2.00;;
1164;SDS011;571;50.930;6.926;2023-04-03T19:24:25;2.23;;;1.70;;
1164;SDS011;571;50.930;6.926;2023-04-03T19:26:52;3.50;;;2.57;;
1164;SDS011;571;50.930;6.926;2023-04-03T19:29:19;3.00;;;2.00;;
1164;SDS011;571;50.930;6.926;2023-04-03T19:31:46;6.00;;;1.87;;
1164;SDS011;571;50.930;6.926;2023-04-03T19:34:16;1.50;;;1.40;;
1164;SDS011;571;50.930;6.926;2023-04-03T19:36:43;1.67;;;1.57;;
1164;SDS011;571;50.930;6.926;2023-04-03T19:39:10;2.17;;;1.70;;
1164;SDS011;571;50.930;6.926;2023-04-03T19:41:40;3.17;;;1.70;;
1164;SDS011;571;50.930;6.926;2023-04-03T19:44:11;4.20;;;1.83;;
1164;SDS011;571;50.930;6.926;2023-04-03T19:46:38;2.97;;;1.73;;
1164;SDS011;571;50.930;6.926;2023-04-03T19:49:04;3.80;;;1.40;;
1164;SDS011;571;50.930;6.926;2023-04-03T19:51:33;4.93;;;2.10;;
1164;SDS011;571;50.930;6.926;2023-04-03T19:54:00;4.33;;;2.47;;
1164;SDS011;571;50.930;6.926;2023-04-03T19:56:27;2.83;;;1.80;;
1164;SDS011;571;50.930;6.926;2023-04-03T19:58:54;2.53;;;1.87;;
1164;SDS011;571;50.930;6.926;2023-04-03T20:01:21;4.90;;;2.07;;
1164;SDS011;571;50.930;6.926;2023-04-03T20:03:49;2.33;;;1.53;;
1164;SDS011;571;50.930;6.926;2023-04-03T20:06:15;2.07;;;1.60;;
1164;SDS011;571;50.930;6.926;2023-04-03T20:08:43;7.13;;;2.80;;
1164;SDS011;571;50.930;6.926;2023-04-03T20:11:10;2.63;;;1.67;;